Terminal Aerodrome Forecast
Issued by NWS Rapid City, SD

Home | Current Version | Previous Version | Text Only | Print | Product List | Glossary Off
Versions: 1 2 3 4 5 6 7 8 9 10 11 12 13 14 15 16 17 18

047
FTUS43 KUNR 082320
TAFRAP
TAF
KRAP 082320Z 0900/0924 33025G35KT P6SM SCT250
     FM090200 33015G25KT P6SM SCT250 WS020/32045KT
     FM091800 33025G35KT P6SM FEW250=

USA.gov is the U.S. government's official web portal to all federal, state and local government web resources and services.